Time;durP1;ratioP1;P1;durP2;ratioP2;P2;SDS_P1;SDS_P2;PMS_P1;PMS_P2;Temp;Humidity;BMP_temperature;BMP_pressure;BME280_temperature;BME280_humidity;BME280_pressure;Samples;Min_cycle;Max_cycle;Signal;HPM_P1;HPM_P2
2021/12/26 00:01:16;;;;;;;;;;;11.70;57.00;;;;;;5103011;28;20130;-70
2021/12/26 00:03:42;;;;;;;;;;;11.60;57.00;;;;;;5102850;28;19908;-71
2021/12/26 00:06:11;;;;;;;;;;;11.60;57.00;;;;;;5102790;28;19979;-70
2021/12/26 00:08:38;;;;;;;;;;;11.60;57.00;;;;;;5102876;28;19908;-70
2021/12/26 00:11:04;;;;;;;;;;;11.70;57.00;;;;;;5102807;28;19908;-70
2021/12/26 00:13:30;;;;;;;;;;;11.70;56.90;;;;;;5102604;28;19900;-72
2021/12/26 00:15:57;;;;;;;;;;;11.70;56.90;;;;;;5084578;28;19915;-70
2021/12/26 00:18:22;;;;;;;;;;;11.70;56.90;;;;;;5102608;28;19915;-71
2021/12/26 00:20:48;;;;;;;;;;;11.60;56.90;;;;;;5102632;28;19908;-70
2021/12/26 00:23:16;;;;;;;;;;;11.70;57.00;;;;;;5102572;28;20208;-70
2021/12/26 00:25:42;;;;;;;;;;;11.60;56.90;;;;;;5102157;28;19996;-70
2021/12/26 00:28:08;;;;;;;;;;;11.60;56.90;;;;;;5102751;28;19955;-70
2021/12/26 00:30:34;;;;;;;;;;;11.60;57.00;;;;;;5102407;28;20249;-70
2021/12/26 00:33:00;;;;;;;;;;;11.60;57.00;;;;;;5102366;28;19935;-70
2021/12/26 00:35:26;;;;;;;;;;;11.60;57.00;;;;;;5102342;28;19935;-70
2021/12/26 00:37:51;;;;;;;;;;;11.60;57.00;;;;;;5102231;28;19942;-70
2021/12/26 00:40:19;;;;;;;;;;;11.60;57.00;;;;;;5102290;28;19908;-70
2021/12/26 00:42:45;;;;;;;;;;;11.70;57.10;;;;;;5083529;28;20095;-70
2021/12/26 00:45:10;;;;;;;;;;;11.60;57.00;;;;;;5102172;28;19900;-71
2021/12/26 00:47:36;;;;;;;;;;;11.60;57.00;;;;;;5102038;28;19979;-70
2021/12/26 00:50:03;;;;;;;;;;;11.60;57.00;;;;;;5101998;28;19965;-70
2021/12/26 00:52:29;;;;;;;;;;;11.60;56.90;;;;;;5102001;28;19943;-70
2021/12/26 00:54:54;;;;;;;;;;;11.60;57.00;;;;;;5101963;28;20096;-71
2021/12/26 00:57:20;;;;;;;;;;;11.60;56.90;;;;;;5101849;28;19936;-70
2021/12/26 00:59:46;;;;;;;;;;;11.60;56.90;;;;;;5101839;28;19950;-70
2021/12/26 01:02:11;;;;;;;;;;;11.60;56.90;;;;;;5101751;28;19948;-71
2021/12/26 01:04:39;;;;;;;;;;;11.60;57.00;;;;;;5101669;28;20022;-70
2021/12/26 01:07:12;;;;;;;;;;;11.60;57.00;;;;;;5101613;28;19945;-70
2021/12/26 01:09:37;;;;;;;;;;;11.60;57.00;;;;;;5101687;28;19908;-70
2021/12/26 01:12:12;;;;;;;;;;;11.60;57.00;;;;;;5101599;28;20304;-69
2021/12/26 01:14:45;;;;;;;;;;;11.60;57.00;;;;;;5101543;28;19916;-69
2021/12/26 01:17:15;;;;;;;;;;;11.60;57.00;;;;;;5083439;28;19942;-70
2021/12/26 01:19:47;;;;;;;;;;;11.60;56.90;;;;;;5101385;28;19922;-69
2021/12/26 01:22:15;;;;;;;;;;;11.60;56.90;;;;;;5083236;28;20303;-69
2021/12/26 01:24:41;;;;;;;;;;;11.60;57.00;;;;;;5101295;28;19900;-70
2021/12/26 01:27:07;;;;;;;;;;;11.60;57.10;;;;;;5101267;28;19907;-69
2021/12/26 01:29:34;;;;;;;;;;;11.60;57.00;;;;;;5101291;28;19946;-69
2021/12/26 01:31:59;;;;;;;;;;;11.60;57.10;;;;;;5101200;28;19899;-69
2021/12/26 01:34:25;;;;;;;;;;;11.60;57.10;;;;;;5101206;28;19900;-69
2021/12/26 01:36:51;;;;;;;;;;;11.60;57.00;;;;;;5100661;28;19953;-70
2021/12/26 01:39:16;;;;;;;;;;;11.60;57.00;;;;;;5100893;28;19908;-69
2021/12/26 01:41:44;;;;;;;;;;;11.60;57.00;;;;;;5101005;28;19915;-69
2021/12/26 01:44:12;;;;;;;;;;;11.60;57.00;;;;;;5100963;28;19900;-69
2021/12/26 01:46:38;;;;;;;;;;;11.60;57.00;;;;;;5100907;28;19946;-69
2021/12/26 01:49:15;;;;;;;;;;;11.60;57.00;;;;;;5100891;28;19915;-69
2021/12/26 01:51:41;;;;;;;;;;;11.60;57.00;;;;;;5100894;28;19900;-69
2021/12/26 01:54:09;;;;;;;;;;;11.60;57.10;;;;;;5100852;28;20490;-69
2021/12/26 01:56:36;;;;;;;;;;;11.60;57.00;;;;;;5100741;28;20153;-69
2021/12/26 01:59:03;;;;;;;;;;;11.60;57.00;;;;;;5100679;28;19903;-69
2021/12/26 02:01:29;;;;;;;;;;;11.60;57.00;;;;;;5100779;28;20031;-69
2021/12/26 02:03:55;;;;;;;;;;;11.60;57.00;;;;;;5100655;28;19908;-69
2021/12/26 02:06:21;;;;;;;;;;;11.60;57.00;;;;;;5100348;28;20184;-69
2021/12/26 02:08:47;;;;;;;;;;;11.60;57.00;;;;;;5100666;28;19915;-69
2021/12/26 02:11:12;;;;;;;;;;;11.60;57.00;;;;;;5100555;28;19912;-70
2021/12/26 02:13:38;;;;;;;;;;;11.60;57.10;;;;;;5100518;28;20102;-70
2021/12/26 02:16:05;;;;;;;;;;;11.60;57.10;;;;;;5100470;28;19908;-69
2021/12/26 02:18:31;;;;;;;;;;;11.60;57.10;;;;;;5100336;28;19908;-69
2021/12/26 02:23:28;;;;;;;;;;;11.60;57.00;;;;;;5100295;28;19948;-70
2021/12/26 02:28:24;;;;;;;;;;;11.60;57.00;;;;;;5100409;28;19986;-70
2021/12/26 02:30:49;;;;;;;;;;;11.60;57.00;;;;;;5082141;28;19908;-69
2021/12/26 02:33:16;;;;;;;;;;;11.50;57.00;;;;;;5100245;28;20184;-70
2021/12/26 02:35:42;;;;;;;;;;;11.50;57.00;;;;;;5100216;28;19917;-70
2021/12/26 02:38:08;;;;;;;;;;;11.50;57.00;;;;;;5100183;28;19908;-70
2021/12/26 02:40:34;;;;;;;;;;;11.50;57.00;;;;;;5100095;28;19936;-69
2021/12/26 02:43:00;;;;;;;;;;;11.50;57.00;;;;;;5100097;28;20207;-69
2021/12/26 02:45:26;;;;;;;;;;;11.50;57.00;;;;;;5100054;28;19908;-69
2021/12/26 02:47:52;;;;;;;;;;;11.60;57.00;;;;;;5099877;28;19975;-70
2021/12/26 02:50:19;;;;;;;;;;;11.50;57.00;;;;;;5099993;28;20219;-69
2021/12/26 02:52:45;;;;;;;;;;;11.50;57.00;;;;;;5081810;28;19940;-70
2021/12/26 02:55:11;;;;;;;;;;;11.50;57.00;;;;;;5099984;28;19907;-69
2021/12/26 02:57:37;;;;;;;;;;;11.50;57.00;;;;;;5081964;28;19914;-69
2021/12/26 03:00:24;;;;;;;;;;;11.50;57.10;;;;;;5099855;28;19908;-69
2021/12/26 03:02:52;;;;;;;;;;;11.60;57.10;;;;;;5099912;28;19900;-70
2021/12/26 03:05:19;;;;;;;;;;;11.50;57.00;;;;;;5099782;28;19938;-69
2021/12/26 03:07:47;;;;;;;;;;;11.50;57.00;;;;;;5099765;28;19955;-70
2021/12/26 03:10:21;;;;;;;;;;;11.50;57.00;;;;;;5081594;28;20236;-70
2021/12/26 03:12:47;;;;;;;;;;;11.50;57.00;;;;;;5099872;28;19939;-68
2021/12/26 03:15:13;;;;;;;;;;;11.50;57.00;;;;;;5099718;28;19933;-69
2021/12/26 03:17:39;;;;;;;;;;;11.50;57.00;;;;;;5099779;28;20263;-69
2021/12/26 03:20:08;;;;;;;;;;;11.50;57.00;;;;;;5099767;28;19963;-69
2021/12/26 03:22:34;;;;;;;;;;;11.50;57.00;;;;;;5099630;28;19915;-70
2021/12/26 03:25:00;;;;;;;;;;;11.50;57.10;;;;;;5099622;28;19900;-69
2021/12/26 03:27:25;;;;;;;;;;;11.50;57.10;;;;;;5099584;28;20012;-69
2021/12/26 03:29:51;;;;;;;;;;;11.50;57.10;;;;;;5099619;28;19999;-70
2021/12/26 03:32:17;;;;;;;;;;;11.50;57.00;;;;;;5099677;28;19915;-70
2021/12/26 03:34:46;;;;;;;;;;;11.50;57.00;;;;;;5099496;28;19938;-69
2021/12/26 03:37:12;;;;;;;;;;;11.60;57.10;;;;;;5099470;28;20433;-69
2021/12/26 03:39:38;;;;;;;;;;;11.50;57.00;;;;;;5099597;28;19939;-70
2021/12/26 03:42:04;;;;;;;;;;;11.50;57.00;;;;;;5099467;28;20216;-70
2021/12/26 03:44:29;;;;;;;;;;;11.50;57.00;;;;;;5099467;28;19900;-69
2021/12/26 03:46:55;;;;;;;;;;;11.50;57.00;;;;;;5099348;28;19904;-70
2021/12/26 03:49:21;;;;;;;;;;;11.50;57.00;;;;;;5081264;28;19908;-69
2021/12/26 03:51:47;;;;;;;;;;;11.50;57.00;;;;;;5099514;28;19940;-69
2021/12/26 03:54:13;;;;;;;;;;;11.50;57.00;;;;;;5099293;28;19915;-70
2021/12/26 03:56:39;;;;;;;;;;;11.50;57.00;;;;;;5099327;28;19912;-70
2021/12/26 03:59:05;;;;;;;;;;;11.50;57.00;;;;;;5099320;28;20331;-71
2021/12/26 04:01:30;;;;;;;;;;;11.50;57.60;;;;;;5101533;28;20323;-70
2021/12/26 04:03:56;;;;;;;;;;;11.50;57.00;;;;;;5102927;28;19986;-70
2021/12/26 04:06:22;;;;;;;;;;;11.50;57.00;;;;;;5102591;28;19945;-69
2021/12/26 04:08:47;;;;;;;;;;;11.50;57.00;;;;;;5102848;28;19914;-69
2021/12/26 04:11:13;;;;;;;;;;;11.50;57.00;;;;;;5084571;28;20197;-70
2021/12/26 04:13:39;;;;;;;;;;;11.50;57.00;;;;;;5084507;28;19908;-70
2021/12/26 04:16:04;;;;;;;;;;;11.50;57.00;;;;;;5102669;28;19907;-70
2021/12/26 04:18:30;;;;;;;;;;;11.50;57.00;;;;;;5102617;28;19900;-70
2021/12/26 04:20:56;;;;;;;;;;;11.50;57.00;;;;;;5102619;28;19908;-68
2021/12/26 04:23:22;;;;;;;;;;;11.50;57.00;;;;;;5102534;28;19900;-70
2021/12/26 04:25:47;;;;;;;;;;;11.50;57.00;;;;;;5102538;28;19915;-69
2021/12/26 04:28:17;;;;;;;;;;;11.50;57.00;;;;;;5102330;28;19916;-70
2021/12/26 04:30:46;;;;;;;;;;;11.50;57.00;;;;;;5102270;28;19915;-70
2021/12/26 04:33:12;;;;;;;;;;;11.50;57.00;;;;;;5102324;28;19973;-69
2021/12/26 04:35:38;;;;;;;;;;;11.50;57.00;;;;;;5102297;28;19908;-69
2021/12/26 04:38:03;;;;;;;;;;;11.50;57.00;;;;;;5102275;28;19912;-70
2021/12/26 04:40:29;;;;;;;;;;;11.50;57.00;;;;;;5102165;28;20120;-70
2021/12/26 04:42:55;;;;;;;;;;;11.50;57.00;;;;;;5102107;28;19907;-69
2021/12/26 04:45:22;;;;;;;;;;;11.50;57.10;;;;;;5083878;28;19908;-69
2021/12/26 04:47:49;;;;;;;;;;;11.50;57.10;;;;;;5102059;28;19953;-70
2021/12/26 04:50:20;;;;;;;;;;;11.50;57.20;;;;;;5102045;28;19932;-69
2021/12/26 04:52:46;;;;;;;;;;;11.50;57.10;;;;;;5102021;28;19983;-69
2021/12/26 04:55:13;;;;;;;;;;;11.50;57.00;;;;;;5101822;28;20175;-70
2021/12/26 04:57:38;;;;;;;;;;;11.50;57.00;;;;;;5101873;28;20238;-69
2021/12/26 05:00:06;;;;;;;;;;;11.50;57.00;;;;;;5101764;28;19908;-70
2021/12/26 05:02:35;;;;;;;;;;;11.50;57.00;;;;;;5101740;28;20282;-69
2021/12/26 05:05:01;;;;;;;;;;;11.50;57.00;;;;;;5101597;28;19908;-69
2021/12/26 05:07:26;;;;;;;;;;;11.50;57.00;;;;;;5101623;28;19919;-70
2021/12/26 05:09:52;;;;;;;;;;;11.50;57.10;;;;;;5101534;28;19939;-70
2021/12/26 05:12:17;;;;;;;;;;;11.50;57.00;;;;;;5082344;28;19915;-70
2021/12/26 05:14:43;;;;;;;;;;;11.50;57.00;;;;;;5101442;28;19915;-69
2021/12/26 05:17:09;;;;;;;;;;;11.50;57.10;;;;;;5101527;28;19908;-69
2021/12/26 05:19:34;;;;;;;;;;;11.50;57.10;;;;;;5101386;28;19910;-69
2021/12/26 05:22:00;;;;;;;;;;;11.50;57.10;;;;;;5101288;28;19945;-70
2021/12/26 05:24:25;;;;;;;;;;;11.50;57.10;;;;;;5083054;28;20264;-70
2021/12/26 05:26:51;;;;;;;;;;;11.50;57.10;;;;;;5101205;28;19952;-70
2021/12/26 05:29:17;;;;;;;;;;;11.50;57.10;;;;;;5101232;28;20231;-70
2021/12/26 05:31:42;;;;;;;;;;;11.50;57.10;;;;;;5082977;28;19974;-70
2021/12/26 05:34:08;;;;;;;;;;;11.50;57.10;;;;;;5101160;28;19915;-70
2021/12/26 05:36:34;;;;;;;;;;;11.50;57.10;;;;;;5101031;28;19907;-69
2021/12/26 05:38:59;;;;;;;;;;;11.50;57.00;;;;;;5101027;28;19900;-69
2021/12/26 05:41:25;;;;;;;;;;;11.50;57.00;;;;;;5082838;28;19970;-69
2021/12/26 05:43:51;;;;;;;;;;;11.50;57.00;;;;;;5101042;28;19908;-69
2021/12/26 05:46:16;;;;;;;;;;;11.50;57.00;;;;;;5100943;28;19908;-69
2021/12/26 05:48:42;;;;;;;;;;;11.50;57.00;;;;;;5100777;28;19947;-70
2021/12/26 05:51:07;;;;;;;;;;;11.50;57.00;;;;;;5100860;28;19976;-70
2021/12/26 05:53:33;;;;;;;;;;;11.50;57.00;;;;;;5100749;28;19907;-70
2021/12/26 05:55:59;;;;;;;;;;;11.50;57.00;;;;;;5100784;28;19908;-69
2021/12/26 05:58:24;;;;;;;;;;;11.50;57.00;;;;;;5100752;28;19907;-70
2021/12/26 06:00:50;;;;;;;;;;;11.50;57.10;;;;;;5100646;28;19967;-69
2021/12/26 06:03:16;;;;;;;;;;;11.40;57.10;;;;;;5100714;28;19931;-69
2021/12/26 06:05:41;;;;;;;;;;;11.40;57.10;;;;;;5100524;28;20116;-70
2021/12/26 06:08:07;;;;;;;;;;;11.50;57.20;;;;;;5100575;28;20511;-69
2021/12/26 06:10:33;;;;;;;;;;;11.50;57.00;;;;;;5100496;28;19998;-69
2021/12/26 06:12:58;;;;;;;;;;;11.50;57.10;;;;;;5100503;28;19908;-70
2021/12/26 06:15:24;;;;;;;;;;;11.50;57.70;;;;;;5100480;28;19908;-69
2021/12/26 06:17:49;;;;;;;;;;;11.50;57.10;;;;;;5100426;28;19904;-69
2021/12/26 06:20:15;;;;;;;;;;;11.40;57.00;;;;;;5100266;28;19900;-70
2021/12/26 06:22:44;;;;;;;;;;;11.50;57.10;;;;;;5100255;28;20020;-69
2021/12/26 06:25:10;;;;;;;;;;;11.50;57.00;;;;;;5099880;28;19931;-70
2021/12/26 06:27:36;;;;;;;;;;;11.50;57.10;;;;;;5100193;28;19916;-69
2021/12/26 06:30:03;;;;;;;;;;;11.50;57.00;;;;;;5100184;28;19900;-69
2021/12/26 06:32:29;;;;;;;;;;;11.50;57.10;;;;;;5100145;28;19971;-69
2021/12/26 06:34:54;;;;;;;;;;;11.50;57.00;;;;;;5100188;28;19954;-69
2021/12/26 06:37:20;;;;;;;;;;;11.50;57.10;;;;;;5100126;28;19907;-70
2021/12/26 06:39:46;;;;;;;;;;;11.50;57.30;;;;;;5100094;28;20227;-70
2021/12/26 06:42:11;;;;;;;;;;;11.40;57.00;;;;;;5100066;28;20095;-71
2021/12/26 06:44:37;;;;;;;;;;;11.40;57.10;;;;;;5100123;28;19908;-69
2021/12/26 06:47:04;;;;;;;;;;;11.40;57.10;;;;;;5099841;28;19919;-70
2021/12/26 06:49:30;;;;;;;;;;;11.40;57.10;;;;;;5081729;28;19900;-70
2021/12/26 06:51:56;;;;;;;;;;;11.50;57.00;;;;;;5099943;28;19908;-69
2021/12/26 06:54:21;;;;;;;;;;;11.50;57.00;;;;;;5099835;28;19907;-70
2021/12/26 06:56:47;;;;;;;;;;;11.50;57.00;;;;;;5099925;28;19976;-69
2021/12/26 06:59:12;;;;;;;;;;;11.50;57.10;;;;;;5099882;28;20398;-69
2021/12/26 07:01:38;;;;;;;;;;;11.50;57.10;;;;;;5099768;28;19935;-69
2021/12/26 07:04:04;;;;;;;;;;;11.50;57.10;;;;;;5099801;28;19971;-69
2021/12/26 07:06:29;;;;;;;;;;;11.50;57.10;;;;;;5099687;28;19912;-69
2021/12/26 07:08:55;;;;;;;;;;;11.40;57.00;;;;;;5099685;28;19963;-69
2021/12/26 07:11:20;;;;;;;;;;;11.50;57.00;;;;;;5099747;28;19930;-70
2021/12/26 07:13:46;;;;;;;;;;;11.50;57.00;;;;;;5099776;28;19912;-69
2021/12/26 07:16:12;;;;;;;;;;;11.50;57.00;;;;;;5081444;28;19975;-70
2021/12/26 07:18:37;;;;;;;;;;;11.50;57.00;;;;;;5099732;28;19912;-70
2021/12/26 07:21:03;;;;;;;;;;;11.40;57.00;;;;;;5099641;28;20119;-70
2021/12/26 07:23:28;;;;;;;;;;;11.50;57.10;;;;;;5099716;28;19908;-69
2021/12/26 07:25:54;;;;;;;;;;;11.40;57.00;;;;;;5099601;28;19908;-70
2021/12/26 07:28:20;;;;;;;;;;;11.50;57.10;;;;;;5099537;28;19931;-68
2021/12/26 07:30:45;;;;;;;;;;;11.40;57.00;;;;;;5099526;28;19930;-69
2021/12/26 07:33:11;;;;;;;;;;;11.40;57.00;;;;;;5081323;28;19908;-69
2021/12/26 07:35:37;;;;;;;;;;;11.40;57.00;;;;;;5100715;28;19915;-70
2021/12/26 07:38:02;;;;;;;;;;;11.50;57.00;;;;;;5103446;28;20119;-70
2021/12/26 07:40:28;;;;;;;;;;;11.50;57.00;;;;;;5103450;28;19916;-70
2021/12/26 07:42:54;;;;;;;;;;;11.50;57.00;;;;;;5103331;28;19912;-69
2021/12/26 07:45:19;;;;;;;;;;;11.50;57.00;;;;;;5103272;28;19908;-69
2021/12/26 07:47:45;;;;;;;;;;;11.50;57.00;;;;;;5103132;28;19926;-69
2021/12/26 07:50:10;;;;;;;;;;;11.50;57.00;;;;;;5103153;28;20108;-69
2021/12/26 07:52:40;;;;;;;;;;;11.50;57.00;;;;;;5103141;28;19908;-69
2021/12/26 07:55:10;;;;;;;;;;;11.50;57.00;;;;;;5103164;28;20203;-70
2021/12/26 07:57:35;;;;;;;;;;;11.50;57.00;;;;;;5084884;28;19900;-70
2021/12/26 08:00:01;;;;;;;;;;;11.50;57.00;;;;;;5103031;28;19919;-70
2021/12/26 08:02:27;;;;;;;;;;;11.50;56.90;;;;;;5103041;28;19976;-70
2021/12/26 08:04:52;;;;;;;;;;;11.50;56.90;;;;;;5102767;28;19908;-70
2021/12/26 08:07:18;;;;;;;;;;;11.50;56.90;;;;;;5102942;28;19919;-71
2021/12/26 08:09:43;;;;;;;;;;;11.50;56.90;;;;;;5084639;28;19935;-70
2021/12/26 08:12:10;;;;;;;;;;;11.50;56.80;;;;;;5102605;28;19915;-70
2021/12/26 08:14:36;;;;;;;;;;;11.50;56.80;;;;;;5102692;28;19945;-70
2021/12/26 08:17:02;;;;;;;;;;;11.50;56.80;;;;;;5102662;28;19908;-70
2021/12/26 08:19:28;;;;;;;;;;;11.50;56.70;;;;;;5102713;28;19936;-70
2021/12/26 08:21:54;;;;;;;;;;;11.50;56.80;;;;;;5102526;28;20100;-71
2021/12/26 08:24:22;;;;;;;;;;;11.50;56.70;;;;;;5102569;28;19907;-69
2021/12/26 08:26:51;;;;;;;;;;;11.50;56.80;;;;;;5102485;28;20238;-69
2021/12/26 08:29:17;;;;;;;;;;;11.50;56.70;;;;;;5102550;28;19945;-69
2021/12/26 08:31:43;;;;;;;;;;;11.60;56.80;;;;;;5102352;28;19922;-69
2021/12/26 08:34:08;;;;;;;;;;;11.60;56.70;;;;;;5084276;28;19966;-70
2021/12/26 08:36:34;;;;;;;;;;;11.60;56.70;;;;;;5102232;28;19908;-69
2021/12/26 08:39:03;;;;;;;;;;;11.60;56.70;;;;;;5102313;28;19971;-69
2021/12/26 08:41:29;;;;;;;;;;;11.60;56.70;;;;;;5102161;28;19915;-70
2021/12/26 08:43:54;;;;;;;;;;;11.60;56.70;;;;;;5102063;28;20108;-69
2021/12/26 08:46:21;;;;;;;;;;;11.60;56.70;;;;;;5101883;28;19904;-70
2021/12/26 08:48:47;;;;;;;;;;;11.60;56.70;;;;;;5102063;28;19918;-70
2021/12/26 08:51:13;;;;;;;;;;;11.60;56.60;;;;;;5102012;28;20203;-71
2021/12/26 08:53:39;;;;;;;;;;;11.60;56.60;;;;;;5102005;28;19931;-70
2021/12/26 08:56:04;;;;;;;;;;;11.60;56.60;;;;;;5101968;28;19967;-70
2021/12/26 08:58:30;;;;;;;;;;;11.60;56.50;;;;;;5101885;28;19900;-70
2021/12/26 09:00:56;;;;;;;;;;;11.70;56.60;;;;;;5101923;28;20108;-70
2021/12/26 09:03:21;;;;;;;;;;;11.70;56.50;;;;;;5101803;28;19935;-70
2021/12/26 09:05:47;;;;;;;;;;;11.80;56.40;;;;;;5101639;28;19985;-70
2021/12/26 09:08:13;;;;;;;;;;;11.80;56.30;;;;;;5101620;28;20196;-70
2021/12/26 09:10:39;;;;;;;;;;;11.80;56.20;;;;;;5101686;28;19908;-70
2021/12/26 09:13:06;;;;;;;;;;;11.80;56.20;;;;;;5101673;28;19900;-70
2021/12/26 09:15:31;;;;;;;;;;;11.90;56.20;;;;;;5083438;28;19950;-70
2021/12/26 09:17:58;;;;;;;;;;;11.90;56.00;;;;;;5101543;28;19908;-70
2021/12/26 09:20:24;;;;;;;;;;;11.90;56.00;;;;;;5101422;28;19908;-69
2021/12/26 09:22:50;;;;;;;;;;;11.90;56.00;;;;;;5101390;28;20100;-70
2021/12/26 09:25:15;;;;;;;;;;;11.90;55.90;;;;;;5101332;28;20128;-70
2021/12/26 09:27:41;;;;;;;;;;;12.00;55.80;;;;;;5101220;28;20306;-71
2021/12/26 09:30:07;;;;;;;;;;;12.00;55.50;;;;;;5083082;28;19907;-70
2021/12/26 09:32:34;;;;;;;;;;;12.10;55.40;;;;;;5101273;28;19998;-70
2021/12/26 09:35:00;;;;;;;;;;;12.10;55.30;;;;;;5101195;28;19900;-70
2021/12/26 09:37:26;;;;;;;;;;;12.10;55.30;;;;;;5101200;28;19907;-70
2021/12/26 09:39:53;;;;;;;;;;;12.10;55.20;;;;;;5101080;28;19908;-70
2021/12/26 09:42:19;;;;;;;;;;;12.10;55.30;;;;;;5101118;28;19950;-70
2021/12/26 09:44:45;;;;;;;;;;;12.10;55.30;;;;;;5101065;28;19904;-70
2021/12/26 09:47:11;;;;;;;;;;;12.10;55.40;;;;;;5100974;28;19919;-70
2021/12/26 09:49:36;;;;;;;;;;;12.10;55.30;;;;;;5100956;28;19908;-69
2021/12/26 09:52:03;;;;;;;;;;;12.20;55.20;;;;;;5100821;28;19914;-70
2021/12/26 09:54:29;;;;;;;;;;;12.10;55.20;;;;;;5100966;28;19912;-70
2021/12/26 09:56:55;;;;;;;;;;;12.20;55.00;;;;;;5100871;28;19908;-70
2021/12/26 09:59:22;;;;;;;;;;;12.20;55.10;;;;;;5100221;28;19904;-71
2021/12/26 10:01:49;;;;;;;;;;;12.20;55.30;;;;;;5100873;28;19908;-70
2021/12/26 10:04:14;;;;;;;;;;;12.10;55.20;;;;;;5100765;28;19947;-71
2021/12/26 10:06:40;;;;;;;;;;;12.20;55.00;;;;;;5100516;28;19919;-70
2021/12/26 10:09:08;;;;;;;;;;;12.20;54.90;;;;;;5100631;28;19900;-70
2021/12/26 10:11:35;;;;;;;;;;;12.20;55.00;;;;;;5100590;28;19908;-71
2021/12/26 10:14:02;;;;;;;;;;;12.20;55.00;;;;;;5100515;28;20188;-70
2021/12/26 10:16:29;;;;;;;;;;;12.20;55.00;;;;;;5100597;28;19962;-70
2021/12/26 10:18:55;;;;;;;;;;;12.20;55.00;;;;;;5100463;28;19908;-70
2021/12/26 10:21:21;;;;;;;;;;;12.20;55.10;;;;;;5100410;28;19908;-71
2021/12/26 10:23:47;;;;;;;;;;;12.20;55.20;;;;;;5082250;28;19915;-70
2021/12/26 10:26:22;;;;;;;;;;;12.20;55.10;;;;;;5100304;28;19922;-70
2021/12/26 10:29:06;;;;;;;;;;;12.10;55.30;;;;;;5100311;28;19954;-70
2021/12/26 10:31:32;;;;;;;;;;;12.20;55.20;;;;;;5100347;28;19974;-69
2021/12/26 10:33:58;;;;;;;;;;;12.20;55.20;;;;;;5082117;28;20459;-70
2021/12/26 10:36:23;;;;;;;;;;;12.20;55.00;;;;;;5100232;28;19935;-69
2021/12/26 10:39:08;;;;;;;;;;;12.30;55.10;;;;;;5082102;28;19908;-69
2021/12/26 10:41:38;;;;;;;;;;;12.30;55.00;;;;;;5100215;28;19908;-69
2021/12/26 10:44:04;;;;;;;;;;;12.30;54.90;;;;;;5100186;28;19908;-69
2021/12/26 10:46:31;;;;;;;;;;;12.30;54.90;;;;;;5100076;28;19900;-70
2021/12/26 10:49:16;;;;;;;;;;;12.40;54.90;;;;;;5100170;28;19935;-70
2021/12/26 10:51:42;;;;;;;;;;;12.30;54.90;;;;;;5099851;28;19976;-70
2021/12/26 10:54:15;;;;;;;;;;;12.40;54.90;;;;;;5100091;28;19908;-70
2021/12/26 10:56:41;;;;;;;;;;;12.40;54.90;;;;;;5100012;28;19915;-71
2021/12/26 10:59:17;;;;;;;;;;;12.40;54.90;;;;;;5100037;28;19908;-71
2021/12/26 11:01:43;;;;;;;;;;;12.40;54.90;;;;;;5081823;28;20211;-71
2021/12/26 11:04:10;;;;;;;;;;;12.40;54.90;;;;;;5081947;28;19908;-69
2021/12/26 11:07:17;;;;;;;;;;;12.40;54.90;;;;;;5099663;28;19927;-70
2021/12/26 11:09:43;;;;;;;;;;;12.40;54.90;;;;;;4998846;28;19910;-70
2021/12/26 11:12:09;;;;;;;;;;;12.40;54.80;;;;;;5002053;28;19977;-69
2021/12/26 11:14:55;;;;;;;;;;;12.40;54.80;;;;;;5051291;28;19900;-68
2021/12/26 11:17:27;;;;;;;;;;;12.50;54.80;;;;;;5103825;28;19900;-70
2021/12/26 11:19:53;;;;;;;;;;;12.50;54.70;;;;;;5085685;28;19915;-69
2021/12/26 11:22:18;;;;;;;;;;;12.50;54.80;;;;;;5103941;28;19908;-69
2021/12/26 11:24:44;;;;;;;;;;;12.50;54.90;;;;;;5103862;28;20100;-70
2021/12/26 11:27:10;;;;;;;;;;;12.50;54.80;;;;;;5103670;28;19954;-69
2021/12/26 11:29:35;;;;;;;;;;;12.50;55.00;;;;;;5103712;28;20010;-69
2021/12/26 11:32:02;;;;;;;;;;;12.50;55.10;;;;;;5103669;28;20010;-70
2021/12/26 11:34:30;;;;;;;;;;;12.40;55.10;;;;;;5103606;28;19939;-70
2021/12/26 11:36:56;;;;;;;;;;;12.40;55.00;;;;;;5085281;28;19904;-70
2021/12/26 11:39:22;;;;;;;;;;;12.40;54.90;;;;;;5103591;28;19973;-70
2021/12/26 11:41:47;;;;;;;;;;;12.40;55.10;;;;;;5103549;28;19908;-71
2021/12/26 11:44:13;;;;;;;;;;;12.40;55.10;;;;;;5103418;28;19931;-70
2021/12/26 11:46:48;;;;;;;;;;;12.40;55.10;;;;;;5103425;28;19978;-70
2021/12/26 11:49:38;;;;;;;;;;;12.40;55.00;;;;;;5103409;28;19908;-69
2021/12/26 11:52:13;;;;;;;;;;;12.40;55.50;;;;;;5090333;28;19931;-69
2021/12/26 11:54:38;;;;;;;;;;;12.40;54.80;;;;;;5103316;28;19936;-70
2021/12/26 11:57:21;;;;;;;;;;;12.40;55.40;;;;;;5085090;28;19961;-69
2021/12/26 12:00:16;;;;;;;;;;;12.50;55.10;;;;;;5103244;28;19900;-70
2021/12/26 12:02:49;;;;;;;;;;;12.30;54.20;;;;;;5080920;28;19969;-70
2021/12/26 12:05:17;;;;;;;;;;;12.40;54.90;;;;;;5102854;28;20138;-69
2021/12/26 12:07:43;;;;;;;;;;;12.40;55.30;;;;;;5102891;28;20317;-69
2021/12/26 12:10:27;;;;;;;;;;;12.40;55.20;;;;;;5102962;28;19908;-70
2021/12/26 12:12:53;;;;;;;;;;;12.40;55.10;;;;;;5102826;28;19908;-69
2021/12/26 12:15:38;;;;;;;;;;;12.40;55.00;;;;;;5102882;28;19908;-70
2021/12/26 12:18:27;;;;;;;;;;;12.40;55.00;;;;;;5102689;28;19914;-71
2021/12/26 12:21:11;;;;;;;;;;;12.40;54.80;;;;;;5088805;28;20214;-69
2021/12/26 12:23:40;;;;;;;;;;;12.40;54.80;;;;;;5102726;28;19908;-70
2021/12/26 12:26:05;;;;;;;;;;;12.40;54.90;;;;;;5102683;28;19976;-70
2021/12/26 12:28:32;;;;;;;;;;;12.40;54.70;;;;;;5102492;28;19911;-70
2021/12/26 12:30:58;;;;;;;;;;;12.50;54.80;;;;;;5102626;28;19915;-69
2021/12/26 12:33:31;;;;;;;;;;;12.40;54.70;;;;;;5102420;28;19908;-68
2021/12/26 12:35:57;;;;;;;;;;;12.50;54.60;;;;;;5102499;28;19950;-69
2021/12/26 12:38:28;;;;;;;;;;;12.50;54.60;;;;;;5102371;28;19974;-70
2021/12/26 12:40:53;;;;;;;;;;;12.40;54.80;;;;;;5102337;28;19949;-71
2021/12/26 12:43:20;;;;;;;;;;;12.50;54.80;;;;;;5101933;28;20154;-71
2021/12/26 12:45:52;;;;;;;;;;;12.40;54.90;;;;;;5084149;28;19908;-70
2021/12/26 12:48:24;;;;;;;;;;;12.40;54.90;;;;;;5102166;28;20029;-70
2021/12/26 12:50:50;;;;;;;;;;;12.40;54.80;;;;;;5102130;28;19980;-69
2021/12/26 12:53:36;;;;;;;;;;;12.40;54.80;;;;;;5102117;28;19908;-70
2021/12/26 12:56:02;;;;;;;;;;;12.40;54.90;;;;;;5099870;28;20112;-69
2021/12/26 12:58:31;;;;;;;;;;;12.40;54.90;;;;;;5102019;28;19907;-71
2021/12/26 13:01:00;;;;;;;;;;;12.40;54.70;;;;;;5101979;28;19907;-70
2021/12/26 13:03:26;;;;;;;;;;;12.40;54.80;;;;;;5101889;28;19908;-71
2021/12/26 13:05:52;;;;;;;;;;;12.40;54.60;;;;;;5101555;28;19942;-71
2021/12/26 13:08:22;;;;;;;;;;;12.40;54.70;;;;;;5101658;28;19919;-71
2021/12/26 13:10:51;;;;;;;;;;;12.40;54.70;;;;;;5101703;28;19908;-70
2021/12/26 13:13:17;;;;;;;;;;;12.40;54.80;;;;;;5101606;28;19938;-70
2021/12/26 13:15:50;;;;;;;;;;;12.40;54.80;;;;;;5101611;28;20299;-70
2021/12/26 13:18:16;;;;;;;;;;;12.40;55.00;;;;;;5101533;28;19900;-70
2021/12/26 13:20:41;;;;;;;;;;;12.40;54.70;;;;;;5101477;28;19935;-70
2021/12/26 13:23:07;;;;;;;;;;;12.40;54.90;;;;;;5101742;28;19967;-69
2021/12/26 13:25:32;;;;;;;;;;;12.40;54.90;;;;;;5101322;28;20239;-70
2021/12/26 13:27:59;;;;;;;;;;;12.50;55.00;;;;;;5101272;28;19947;-71
2021/12/26 13:30:26;;;;;;;;;;;12.40;54.80;;;;;;5101278;28;19907;-69
2021/12/26 13:32:52;;;;;;;;;;;12.50;54.70;;;;;;5100434;28;19908;-70
2021/12/26 13:35:18;;;;;;;;;;;12.50;54.40;;;;;;5101085;28;20445;-70
2021/12/26 13:37:44;;;;;;;;;;;12.50;54.60;;;;;;5101123;28;19908;-70
2021/12/26 13:40:11;;;;;;;;;;;12.50;54.70;;;;;;5101092;28;19966;-70
2021/12/26 13:42:39;;;;;;;;;;;12.50;54.40;;;;;;5101096;28;19908;-70
2021/12/26 13:45:06;;;;;;;;;;;12.50;54.60;;;;;;5101037;28;19907;-69
2021/12/26 13:47:39;;;;;;;;;;;12.50;54.40;;;;;;5100793;28;20119;-70
2021/12/26 13:50:06;;;;;;;;;;;12.50;54.60;;;;;;5100883;28;19930;-70
2021/12/26 13:52:32;;;;;;;;;;;12.50;54.90;;;;;;5100834;28;19944;-70
2021/12/26 13:54:57;;;;;;;;;;;12.50;54.70;;;;;;5100890;28;20321;-69
2021/12/26 13:57:24;;;;;;;;;;;12.50;54.80;;;;;;5100674;28;19945;-70
2021/12/26 13:59:51;;;;;;;;;;;12.50;55.10;;;;;;5100773;28;19975;-70
2021/12/26 14:02:26;;;;;;;;;;;12.50;54.80;;;;;;5100715;28;19912;-70
2021/12/26 14:04:57;;;;;;;;;;;12.50;54.80;;;;;;5100510;28;20250;-70
2021/12/26 14:07:26;;;;;;;;;;;12.50;54.70;;;;;;5100511;28;19908;-70
2021/12/26 14:09:55;;;;;;;;;;;12.50;54.70;;;;;;5100546;28;19900;-70
2021/12/26 14:12:42;;;;;;;;;;;12.50;54.60;;;;;;5100485;28;20200;-70
2021/12/26 14:15:21;;;;;;;;;;;12.50;54.60;;;;;;5100475;28;20137;-71
2021/12/26 14:18:15;;;;;;;;;;;12.50;54.80;;;;;;5100486;28;19932;-70
2021/12/26 14:20:47;;;;;;;;;;;12.50;54.80;;;;;;5096825;28;20316;-70
2021/12/26 14:23:18;;;;;;;;;;;12.50;55.10;;;;;;5100605;28;20242;-69